createdAt,value
2023-12-01T00:01:41.739Z,16.40
2023-12-01T00:04:08.553Z,16.10
2023-12-01T00:06:35.437Z,16.10
2023-12-01T00:09:02.230Z,16.20
2023-12-01T00:11:29.029Z,16.10
2023-12-01T00:13:56.010Z,16.10
2023-12-01T00:16:22.739Z,16.10
2023-12-01T00:18:49.490Z,16.10
2023-12-01T00:21:16.597Z,16.20
2023-12-01T00:23:43.287Z,16.10
2023-12-01T00:26:09.982Z,16.10
2023-12-01T00:28:36.700Z,16.30
2023-12-01T00:31:03.546Z,16.10
2023-12-01T00:33:30.291Z,16.10
2023-12-01T00:35:57.010Z,16.10
2023-12-01T00:38:23.716Z,16.10
2023-12-01T00:40:51.419Z,16.00
2023-12-01T00:43:18.304Z,16.00
2023-12-01T00:45:45.149Z,16.10
2023-12-01T00:48:11.899Z,16.20
2023-12-01T00:50:40.659Z,16.20
2023-12-01T00:53:07.408Z,16.30
2023-12-01T00:55:34.074Z,16.40
2023-12-01T00:58:00.849Z,16.30
2023-12-01T01:00:27.547Z,16.50
2023-12-01T01:02:54.368Z,16.50
2023-12-01T01:05:21.288Z,16.50
2023-12-01T01:07:47.963Z,16.60
2023-12-01T01:10:14.845Z,16.50
2023-12-01T01:12:41.692Z,16.50
2023-12-01T01:15:08.835Z,16.60
2023-12-01T01:17:35.635Z,16.70
2023-12-01T01:20:03.348Z,16.80
2023-12-01T01:22:30.074Z,16.80
2023-12-01T01:24:57.010Z,16.80
2023-12-01T01:27:23.764Z,16.80
2023-12-01T01:29:50.449Z,16.90
2023-12-01T01:32:17.150Z,16.90
2023-12-01T01:34:44.028Z,16.80
2023-12-01T01:37:10.839Z,16.80
2023-12-01T01:39:37.671Z,16.80
2023-12-01T01:42:04.812Z,16.80
2023-12-01T01:44:31.506Z,16.70
2023-12-01T01:46:58.767Z,16.70
2023-12-01T01:49:28.859Z,16.70
2023-12-01T01:51:56.095Z,16.70
2023-12-01T01:54:26.639Z,16.70
2023-12-01T01:56:53.819Z,16.70
2023-12-01T01:59:22.292Z,16.70
2023-12-01T02:01:49.821Z,16.80
2023-12-01T02:04:17.600Z,16.80
2023-12-01T02:06:47.928Z,16.80
2023-12-01T02:09:14.778Z,16.90
2023-12-01T02:11:42.426Z,16.90
2023-12-01T02:14:09.481Z,16.90
2023-12-01T02:16:36.542Z,17.00
2023-12-01T02:19:03.739Z,16.90
2023-12-01T02:21:37.049Z,16.90
2023-12-01T02:24:04.508Z,17.00
2023-12-01T02:26:31.243Z,17.10
2023-12-01T02:28:57.967Z,17.00
2023-12-01T02:31:24.731Z,16.90
2023-12-01T02:33:55.044Z,16.90
2023-12-01T02:36:21.839Z,16.90
2023-12-01T02:38:48.674Z,17.00
2023-12-01T02:41:17.083Z,16.90
2023-12-01T02:43:44.306Z,17.00
2023-12-01T02:46:14.487Z,16.90
2023-12-01T02:48:41.787Z,17.00
2023-12-01T02:51:09.142Z,17.00
2023-12-01T02:53:36.009Z,17.00
2023-12-01T02:56:03.048Z,17.00
2023-12-01T02:58:29.734Z,17.00
2023-12-01T03:00:56.469Z,17.00
2023-12-01T03:03:23.319Z,17.20
2023-12-01T03:05:50.131Z,17.00
2023-12-01T03:08:16.834Z,17.00
2023-12-01T03:10:43.545Z,16.90
2023-12-01T03:13:10.240Z,16.90
2023-12-01T03:15:37.054Z,16.90
2023-12-01T03:18:04.765Z,16.90
2023-12-01T03:20:31.481Z,16.90
2023-12-01T03:22:58.357Z,16.80
2023-12-01T03:25:25.126Z,16.90
2023-12-01T03:27:52.047Z,17.00
2023-12-01T03:30:20.338Z,16.90
2023-12-01T03:32:50.505Z,16.90
2023-12-01T03:35:19.390Z,16.90
2023-12-01T03:37:46.606Z,16.90
2023-12-01T03:40:14.889Z,16.90
2023-12-01T03:42:51.724Z,16.70
2023-12-01T03:45:18.821Z,16.90
2023-12-01T03:47:50.624Z,16.90
2023-12-01T03:50:19.819Z,16.80
2023-12-01T03:52:48.771Z,16.80
2023-12-01T03:55:15.970Z,16.80
2023-12-01T03:57:44.141Z,16.90
2023-12-01T04:00:17.426Z,16.80
2023-12-01T04:02:45.978Z,16.90
2023-12-01T04:05:21.616Z,16.90
2023-12-01T04:07:51.971Z,16.90
2023-12-01T04:10:19.939Z,16.90
2023-12-01T04:12:47.355Z,17.00
2023-12-01T04:15:14.356Z,16.90
2023-12-01T04:17:43.611Z,17.00
2023-12-01T04:20:28.831Z,16.90
2023-12-01T04:22:59.269Z,16.60
2023-12-01T04:25:26.983Z,16.90
2023-12-01T04:27:54.599Z,16.90
2023-12-01T04:30:22.287Z,16.90
2023-12-01T04:32:54.976Z,16.80
2023-12-01T04:35:23.246Z,16.90
2023-12-01T04:37:50.394Z,16.90
2023-12-01T04:40:17.360Z,16.90
2023-12-01T04:42:53.117Z,16.80
2023-12-01T04:45:22.366Z,16.90
2023-12-01T04:47:52.083Z,16.80
2023-12-01T04:50:20.909Z,16.80
2023-12-01T04:52:54.285Z,16.90
2023-12-01T04:55:23.939Z,16.90
2023-12-01T04:57:50.834Z,17.00
2023-12-01T05:00:20.790Z,16.90
2023-12-01T05:02:53.059Z,17.00
2023-12-01T05:05:30.988Z,16.90
2023-12-01T05:08:00.764Z,16.90
2023-12-01T05:10:33.060Z,16.90
2023-12-01T05:13:02.245Z,16.90
2023-12-01T05:15:31.574Z,16.80
2023-12-01T05:18:03.138Z,16.80
2023-12-01T05:20:30.279Z,16.90
2023-12-01T05:23:02.051Z,16.90
2023-12-01T05:25:34.300Z,16.80
2023-12-01T05:28:03.252Z,16.80
2023-12-01T05:30:32.557Z,16.90
2023-12-01T05:32:59.784Z,16.90
2023-12-01T05:35:27.436Z,16.90
2023-12-01T05:37:56.206Z,16.80
2023-12-01T05:40:30.764Z,16.80
2023-12-01T05:42:59.729Z,17.00
2023-12-01T05:45:29.041Z,17.00
2023-12-01T05:47:57.547Z,16.70
2023-12-01T05:50:31.828Z,16.90
2023-12-01T05:53:04.782Z,16.90
2023-12-01T05:55:36.816Z,16.80
2023-12-01T05:58:11.865Z,16.90
2023-12-01T06:00:39.824Z,16.90
2023-12-01T06:03:11.316Z,16.90
2023-12-01T06:05:39.296Z,17.00
2023-12-01T06:08:07.003Z,16.90
2023-12-01T06:10:34.613Z,16.90
2023-12-01T06:13:01.863Z,16.70
2023-12-01T06:15:32.045Z,16.80
2023-12-01T06:18:00.390Z,16.90
2023-12-01T06:20:27.986Z,16.80
2023-12-01T06:23:01.148Z,16.90
2023-12-01T06:25:33.085Z,16.80
2023-12-01T06:28:02.745Z,16.90
2023-12-01T06:30:34.930Z,16.80
2023-12-01T06:44:46.845Z,16.90
2023-12-01T06:47:14.296Z,17.00
2023-12-01T06:49:41.888Z,16.90
2023-12-01T06:52:09.666Z,16.80
2023-12-01T06:54:36.818Z,16.80
2023-12-01T06:57:03.952Z,17.00
2023-12-01T06:59:31.117Z,16.80
2023-12-01T07:01:58.106Z,16.80
2023-12-01T07:04:25.900Z,16.80
2023-12-01T07:06:53.042Z,16.80
2023-12-01T07:09:20.021Z,16.90
2023-12-01T07:11:47.617Z,16.90
2023-12-01T07:14:14.636Z,16.90
2023-12-01T07:16:43.457Z,17.10
2023-12-01T07:19:11.418Z,16.80
2023-12-01T07:21:40.837Z,16.90
2023-12-01T07:24:09.430Z,16.80
2023-12-01T07:26:36.381Z,16.90
2023-12-01T07:29:05.777Z,16.80
2023-12-01T07:31:34.965Z,16.70
2023-12-01T07:34:02.609Z,16.70
2023-12-01T07:36:38.021Z,16.70
2023-12-01T07:39:10.552Z,16.60
2023-12-01T07:41:37.720Z,16.60
2023-12-01T07:44:05.109Z,16.60
2023-12-01T07:46:33.608Z,16.40
2023-12-01T07:49:08.964Z,16.40
2023-12-01T07:51:37.128Z,16.50
2023-12-01T07:54:04.107Z,16.40
2023-12-01T07:56:31.076Z,16.40
2023-12-01T07:58:58.072Z,16.40
2023-12-01T08:01:25.472Z,16.40
2023-12-01T08:03:52.615Z,16.30
2023-12-01T08:06:19.728Z,16.40
2023-12-01T08:08:46.764Z,16.60
2023-12-01T08:11:13.686Z,16.60
2023-12-01T08:13:40.622Z,16.60
2023-12-01T08:16:08.192Z,16.80
2023-12-01T08:18:35.371Z,16.70
2023-12-01T08:21:02.410Z,16.70
2023-12-01T08:23:29.481Z,16.60
2023-12-01T08:25:56.766Z,16.70
2023-12-01T08:28:24.075Z,16.70
2023-12-01T08:30:51.012Z,16.80
2023-12-01T08:33:18.144Z,16.80
2023-12-01T08:35:45.185Z,16.70
2023-12-01T08:38:12.164Z,16.70
2023-12-01T08:40:43.440Z,16.80
2023-12-01T08:43:11.413Z,16.60
2023-12-01T08:45:38.388Z,16.60
2023-12-01T08:48:05.609Z,16.40
2023-12-01T08:50:32.580Z,16.50
2023-12-01T08:52:59.546Z,16.40
2023-12-01T08:55:26.477Z,16.30
2023-12-01T08:57:53.413Z,16.40
2023-12-01T09:00:23.259Z,16.30
2023-12-01T09:02:51.974Z,16.30
2023-12-01T09:05:19.476Z,16.30
2023-12-01T09:07:50.571Z,16.30
2023-12-01T09:10:21.343Z,16.30
2023-12-01T09:12:49.860Z,16.20
2023-12-01T09:15:17.117Z,16.20
2023-12-01T09:17:44.176Z,16.10
2023-12-01T09:20:11.937Z,16.20
2023-12-01T09:22:39.018Z,16.20
2023-12-01T09:25:07.928Z,16.10
2023-12-01T09:27:38.651Z,16.20
2023-12-01T09:30:09.152Z,16.20
2023-12-01T09:32:36.154Z,16.10
2023-12-01T09:35:04.174Z,16.00
2023-12-01T09:37:31.107Z,16.10
2023-12-01T09:39:58.260Z,16.20
2023-12-01T09:42:26.226Z,16.10
2023-12-01T09:44:57.350Z,16.10
2023-12-01T09:47:26.325Z,16.10
2023-12-01T09:49:53.688Z,16.10
2023-12-01T09:52:20.613Z,16.00
2023-12-01T09:55:07.011Z,16.30
2023-12-01T09:57:34.751Z,16.20
2023-12-01T10:00:04.798Z,16.20
2023-12-01T10:02:34.109Z,16.10
2023-12-01T10:05:22.147Z,16.20
2023-12-01T10:07:52.366Z,16.10
2023-12-01T10:10:26.389Z,16.10
2023-12-01T10:12:57.774Z,16.20
2023-12-01T10:15:26.590Z,16.10
2023-12-01T10:18:16.214Z,16.10
2023-12-01T10:21:05.404Z,16.10
2023-12-01T10:23:35.254Z,16.10
2023-12-01T10:26:05.924Z,16.10
2023-12-01T10:28:42.248Z,16.20
2023-12-01T10:31:09.350Z,16.20
2023-12-01T10:33:36.988Z,16.20
2023-12-01T10:36:09.093Z,16.20
2023-12-01T10:38:40.076Z,16.20
2023-12-01T10:41:07.344Z,16.20
2023-12-01T10:43:35.539Z,16.20
2023-12-01T10:46:04.820Z,16.20
2023-12-01T10:48:35.170Z,16.10
2023-12-01T10:51:07.675Z,16.20
2023-12-01T10:53:36.443Z,16.20
2023-12-01T10:56:06.012Z,16.10
2023-12-01T10:58:37.540Z,16.10
2023-12-01T11:01:05.558Z,16.20
2023-12-01T11:03:33.926Z,16.10
2023-12-01T11:06:08.345Z,16.10
2023-12-01T11:09:00.624Z,16.10
2023-12-01T11:11:39.910Z,16.10
2023-12-01T11:14:06.876Z,16.10
2023-12-01T11:16:34.647Z,16.10
2023-12-01T11:19:01.706Z,16.10
2023-12-01T11:21:30.651Z,16.00
2023-12-01T11:24:34.077Z,16.00
2023-12-01T11:27:05.817Z,16.10
2023-12-01T11:29:38.543Z,16.10
2023-12-01T11:32:06.040Z,16.10
2023-12-01T11:34:34.334Z,16.10
2023-12-01T11:37:04.108Z,16.10
2023-12-01T11:39:31.527Z,16.10
2023-12-01T11:41:58.674Z,16.00
2023-12-01T11:44:39.121Z,16.00
2023-12-01T11:47:10.225Z,16.00
2023-12-01T11:49:42.136Z,16.10
2023-12-01T11:52:22.387Z,16.10
2023-12-01T11:54:51.058Z,16.10
2023-12-01T11:57:20.424Z,16.00
2023-12-01T11:59:51.356Z,16.00
2023-12-01T12:02:30.514Z,16.00
2023-12-01T12:05:02.832Z,16.00
2023-12-01T12:07:30.229Z,16.10
2023-12-01T12:09:58.310Z,16.00
2023-12-01T12:12:25.395Z,16.10
2023-12-01T12:14:56.904Z,16.30
2023-12-01T12:17:24.009Z,16.30
2023-12-01T12:19:58.046Z,16.10
2023-12-01T12:22:28.990Z,16.10
2023-12-01T12:24:56.541Z,16.10
2023-12-01T12:27:23.606Z,16.10
2023-12-01T12:29:53.423Z,16.10
2023-12-01T12:32:21.020Z,16.10
2023-12-01T12:34:48.129Z,16.10
2023-12-01T12:37:15.379Z,16.20
2023-12-01T12:39:46.010Z,16.10
2023-12-01T12:42:16.970Z,16.10
2023-12-01T12:44:47.595Z,16.20
2023-12-01T12:47:16.239Z,16.10
2023-12-01T12:49:44.853Z,16.00
2023-12-01T12:52:12.766Z,16.10
2023-12-01T12:54:42.499Z,16.10
2023-12-01T12:57:09.532Z,16.00
2023-12-01T12:59:36.503Z,16.00
2023-12-01T13:02:04.020Z,16.00
2023-12-01T13:04:31.043Z,16.10
2023-12-01T13:06:57.946Z,16.10
2023-12-01T13:09:24.903Z,16.10
2023-12-01T13:11:52.344Z,16.10
2023-12-01T13:14:20.046Z,16.10
2023-12-01T13:16:54.310Z,16.10
2023-12-01T13:19:24.650Z,16.10
2023-12-01T13:21:55.461Z,16.30
2023-12-01T13:24:23.753Z,16.20
2023-12-01T13:26:51.497Z,16.30
2023-12-01T13:29:19.236Z,16.10
2023-12-01T13:31:46.455Z,16.10
2023-12-01T13:34:13.606Z,16.20
2023-12-01T13:36:40.556Z,16.00
2023-12-01T13:39:07.574Z,16.10
2023-12-01T13:41:34.626Z,16.10
2023-12-01T13:44:01.576Z,16.00
2023-12-01T13:46:28.676Z,16.20
2023-12-01T13:48:55.742Z,16.00
2023-12-01T13:51:22.680Z,16.20
2023-12-01T13:53:50.653Z,16.00
2023-12-01T13:56:17.789Z,16.00
2023-12-01T13:58:46.598Z,16.00
2023-12-01T14:01:16.755Z,16.00
2023-12-01T14:03:44.222Z,15.90
2023-12-01T14:06:11.606Z,16.00
2023-12-01T14:08:38.589Z,16.00
2023-12-01T14:11:05.843Z,16.00
2023-12-01T14:13:33.238Z,16.00
2023-12-01T14:16:01.869Z,16.00
2023-12-01T14:18:30.710Z,16.00
2023-12-01T14:20:57.751Z,16.00
2023-12-01T14:23:24.696Z,16.00
2023-12-01T14:25:51.680Z,16.10
2023-12-01T14:28:18.777Z,16.20
2023-12-01T14:30:45.731Z,16.10
2023-12-01T14:33:13.200Z,16.10
2023-12-01T14:35:40.166Z,16.40
2023-12-01T14:38:07.160Z,16.00
2023-12-01T14:40:34.765Z,16.10
2023-12-01T14:43:02.605Z,16.00
2023-12-01T14:45:29.599Z,16.20
2023-12-01T14:47:56.695Z,15.90
2023-12-01T14:50:23.780Z,16.00
2023-12-01T14:52:50.698Z,16.00
2023-12-01T14:55:17.803Z,16.00
2023-12-01T14:57:45.087Z,16.00
2023-12-01T15:00:13.691Z,16.00
2023-12-01T15:02:40.729Z,16.00
2023-12-01T15:05:08.176Z,16.00
2023-12-01T15:07:35.906Z,16.00
2023-12-01T15:10:02.961Z,16.00
2023-12-01T15:12:29.978Z,15.90
2023-12-01T15:14:56.938Z,16.00
2023-12-01T15:17:24.032Z,16.00
2023-12-01T15:19:51.657Z,16.00
2023-12-01T15:22:19.330Z,15.90
2023-12-01T15:24:46.550Z,16.00
2023-12-01T15:27:13.596Z,15.90
2023-12-01T15:29:40.719Z,15.90
2023-12-01T15:32:07.821Z,16.00
2023-12-01T15:34:34.872Z,16.00
2023-12-01T15:37:01.915Z,16.00
2023-12-01T15:39:28.904Z,16.10
2023-12-01T15:41:55.957Z,16.00
2023-12-01T15:44:22.940Z,16.10
2023-12-01T15:46:49.893Z,16.30
2023-12-01T15:49:17.032Z,16.10
2023-12-01T15:51:44.050Z,16.30
2023-12-01T15:54:10.998Z,16.20
2023-12-01T15:56:37.971Z,16.20
2023-12-01T15:59:04.906Z,16.40
2023-12-01T16:01:31.910Z,16.20
2023-12-01T16:03:59.939Z,16.20
2023-12-01T16:06:26.918Z,16.20
2023-12-01T16:08:53.964Z,16.10
2023-12-01T16:11:21.268Z,16.10
2023-12-01T16:13:48.409Z,16.10
2023-12-01T16:16:15.543Z,16.10
2023-12-01T16:18:42.691Z,16.10
2023-12-01T16:21:22.888Z,16.10
2023-12-01T16:23:50.008Z,16.10
2023-12-01T16:26:17.009Z,16.10
2023-12-01T16:28:44.042Z,15.90
2023-12-01T16:31:11.328Z,16.10
2023-12-01T16:33:39.277Z,16.10
2023-12-01T16:36:30.234Z,16.00
2023-12-01T16:38:54.806Z,16.10
2023-12-01T16:41:22.713Z,16.00
2023-12-01T16:43:49.643Z,16.10
2023-12-01T16:46:16.596Z,16.00
2023-12-01T16:48:43.641Z,16.00
2023-12-01T16:51:10.869Z,16.10
2023-12-01T16:53:37.939Z,16.00
2023-12-01T16:56:05.189Z,16.00
2023-12-01T16:58:32.351Z,16.00
2023-12-01T17:00:59.419Z,16.00
2023-12-01T17:03:26.642Z,15.90
2023-12-01T17:05:53.791Z,16.00
2023-12-01T17:08:20.929Z,16.10
2023-12-01T17:10:47.838Z,16.00
2023-12-01T17:13:14.786Z,16.00
2023-12-01T17:15:41.887Z,16.00
2023-12-01T17:18:09.021Z,16.00
2023-12-01T17:20:37.030Z,16.00
2023-12-01T17:23:04.081Z,16.00
2023-12-01T17:25:31.222Z,16.10
2023-12-01T17:27:58.150Z,16.00
2023-12-01T17:30:25.170Z,16.00
2023-12-01T17:32:52.184Z,16.10
2023-12-01T17:35:19.256Z,15.90
2023-12-01T17:37:46.342Z,16.00
2023-12-01T17:40:13.364Z,15.90
2023-12-01T17:42:40.391Z,16.00
2023-12-01T17:45:07.916Z,15.90
2023-12-01T17:47:34.972Z,16.00
2023-12-01T17:50:01.956Z,16.00
2023-12-01T17:52:29.584Z,16.20
2023-12-01T17:54:56.527Z,16.00
2023-12-01T17:57:23.499Z,16.00
2023-12-01T17:59:50.520Z,15.90
2023-12-01T18:02:17.579Z,16.00
2023-12-01T18:04:44.675Z,16.00
2023-12-01T18:07:11.816Z,16.00
2023-12-01T18:09:38.846Z,16.00
2023-12-01T18:12:06.183Z,15.90
2023-12-01T18:14:33.338Z,15.90
2023-12-01T18:17:00.586Z,15.90
2023-12-01T18:19:27.612Z,15.90
2023-12-01T18:21:55.431Z,16.00
2023-12-01T18:24:22.587Z,16.00
2023-12-01T18:26:49.566Z,15.90
2023-12-01T18:29:16.551Z,15.90
2023-12-01T18:31:43.614Z,15.90
2023-12-01T18:34:10.857Z,15.90
2023-12-01T18:36:38.062Z,15.80
2023-12-01T18:39:05.221Z,15.90
2023-12-01T18:41:32.984Z,15.90
2023-12-01T18:43:59.943Z,15.80
2023-12-01T18:46:26.942Z,15.90
2023-12-01T18:48:54.080Z,15.90
2023-12-01T18:51:21.337Z,16.00
2023-12-01T18:53:48.354Z,15.80
2023-12-01T18:56:15.332Z,15.90
2023-12-01T18:58:42.292Z,15.90
2023-12-01T19:01:09.455Z,16.00
2023-12-01T19:03:36.687Z,16.00
2023-12-01T19:06:04.137Z,16.10
2023-12-01T19:08:31.128Z,16.00
2023-12-01T19:10:58.610Z,16.00
2023-12-01T19:13:25.929Z,16.00
2023-12-01T19:15:53.075Z,16.00
2023-12-01T19:18:20.196Z,16.00
2023-12-01T19:20:47.322Z,15.90
2023-12-01T19:23:14.327Z,16.00
2023-12-01T19:25:41.357Z,16.00
2023-12-01T19:28:08.298Z,16.00
2023-12-01T19:30:35.305Z,15.90
2023-12-01T19:33:02.475Z,16.00
2023-12-01T19:35:29.652Z,15.90
2023-12-01T19:37:56.827Z,15.90
2023-12-01T19:40:23.842Z,15.90
2023-12-01T19:42:50.809Z,15.90
2023-12-01T19:45:17.760Z,16.00
2023-12-01T19:47:44.738Z,15.80
2023-12-01T19:50:11.724Z,16.00
2023-12-01T19:52:38.756Z,15.90
2023-12-01T19:55:06.019Z,15.90
2023-12-01T19:57:33.051Z,15.80
2023-12-01T20:00:00.404Z,15.90
2023-12-01T20:02:29.585Z,15.90
2023-12-01T20:04:56.838Z,15.80
2023-12-01T20:07:23.865Z,15.90
2023-12-01T20:09:50.903Z,15.90
2023-12-01T20:12:19.120Z,15.80
2023-12-01T20:14:46.127Z,15.80
2023-12-01T20:17:13.117Z,15.80
2023-12-01T20:19:40.681Z,15.80
2023-12-01T20:22:08.154Z,15.80
2023-12-01T20:24:36.568Z,15.80
2023-12-01T20:27:03.806Z,16.00
2023-12-01T20:29:30.742Z,16.10
2023-12-01T20:31:58.815Z,15.80
2023-12-01T20:34:25.764Z,15.80
2023-12-01T20:36:52.791Z,16.00
2023-12-01T20:39:19.768Z,15.80
2023-12-01T20:41:47.536Z,16.00
2023-12-01T20:44:14.612Z,15.80
2023-12-01T20:46:41.700Z,15.80
2023-12-01T20:49:09.078Z,15.90
2023-12-01T20:51:36.037Z,15.80
2023-12-01T20:54:03.045Z,15.80
2023-12-01T20:56:29.964Z,15.80
2023-12-01T20:58:56.990Z,16.00
2023-12-01T21:01:23.968Z,15.90
2023-12-01T21:03:50.906Z,16.00
2023-12-01T21:06:18.153Z,15.90
2023-12-01T21:08:45.534Z,16.00
2023-12-01T21:11:12.553Z,15.90
2023-12-01T21:13:39.548Z,15.90
2023-12-01T21:16:07.058Z,15.90
2023-12-01T21:18:34.236Z,15.90
2023-12-01T21:21:01.236Z,15.90
2023-12-01T21:23:28.242Z,15.80
2023-12-01T21:25:55.141Z,15.80
2023-12-01T21:28:22.097Z,16.00
2023-12-01T21:30:49.067Z,15.80
2023-12-01T21:33:16.097Z,15.80
2023-12-01T21:35:43.224Z,15.90
2023-12-01T21:38:10.212Z,15.80
2023-12-01T21:40:37.198Z,15.80
2023-12-01T21:43:04.155Z,15.80
2023-12-01T21:45:31.383Z,15.80
2023-12-01T21:47:58.440Z,15.90
2023-12-01T21:50:25.574Z,15.90
2023-12-01T21:52:52.730Z,15.90
2023-12-01T21:55:19.694Z,15.80
2023-12-01T21:57:46.773Z,15.90
2023-12-01T22:00:14.538Z,15.90
2023-12-01T22:02:41.604Z,15.80
2023-12-01T22:05:08.753Z,15.90
2023-12-01T22:07:35.848Z,15.80
2023-12-01T22:10:02.976Z,15.80
2023-12-01T22:12:29.989Z,15.80
2023-12-01T22:14:57.114Z,15.80
2023-12-01T22:17:24.566Z,15.80
2023-12-01T22:19:51.513Z,15.80
2023-12-01T22:22:21.718Z,15.80
2023-12-01T22:24:49.507Z,15.80
2023-12-01T22:27:16.693Z,15.80
2023-12-01T22:29:43.870Z,15.90
2023-12-01T22:32:12.856Z,15.90
2023-12-01T22:34:39.950Z,15.90
2023-12-01T22:37:06.942Z,15.90
2023-12-01T22:39:34.061Z,15.90
2023-12-01T22:42:02.134Z,15.80
2023-12-01T22:44:29.135Z,15.80
2023-12-01T22:46:59.346Z,15.80
2023-12-01T22:49:26.887Z,15.80
2023-12-01T22:51:54.445Z,15.80
2023-12-01T22:54:21.458Z,16.00
2023-12-01T22:56:49.758Z,15.80
2023-12-01T22:59:16.721Z,15.80
2023-12-01T23:01:43.745Z,15.80
2023-12-01T23:04:11.065Z,15.80
2023-12-01T23:06:38.206Z,15.90
2023-12-01T23:09:06.050Z,15.70
2023-12-01T23:11:33.480Z,15.90
2023-12-01T23:14:00.581Z,15.70
2023-12-01T23:16:27.714Z,15.70
2023-12-01T23:18:54.809Z,15.80
2023-12-01T23:21:22.030Z,16.10
2023-12-01T23:23:49.057Z,16.00
2023-12-01T23:26:16.137Z,15.90
2023-12-01T23:28:43.238Z,15.80
2023-12-01T23:31:11.212Z,15.90
2023-12-01T23:33:38.522Z,15.80
2023-12-01T23:36:06.411Z,15.80
2023-12-01T23:38:33.892Z,15.80
2023-12-01T23:41:01.068Z,15.70
2023-12-01T23:43:28.013Z,15.70
2023-12-01T23:45:54.910Z,15.70
2023-12-01T23:48:21.971Z,15.80
2023-12-01T23:50:49.005Z,15.70
2023-12-01T23:53:15.952Z,15.70
2023-12-01T23:55:42.923Z,15.70
2023-12-01T23:58:09.968Z,15.80
